Time;durP1;ratioP1;P1;durP2;ratioP2;P2;SDS_P1;SDS_P2;PMS_P1;PMS_P2;Temp;Humidity;BMP_temperature;BMP_pressure;BME280_temperature;BME280_humidity;BME280_pressure;Samples;Min_cycle;Max_cycle;Signal;HPM_P1;HPM_P2
2023/12/19 00:00:58;;;;;;;52.15;30.08;;;8.50;97.20;;;;;;5056850;28;20036;-55
2023/12/19 00:03:25;;;;;;;53.78;30.80;;;8.60;97.30;;;;;;5074490;28;20052;-55
2023/12/19 00:05:51;;;;;;;49.17;31.90;;;8.50;97.20;;;;;;5073889;28;20036;-57
2023/12/19 00:08:19;;;;;;;52.58;31.20;;;8.40;97.30;;;;;;5073981;28;20028;-57
2023/12/19 00:10:47;;;;;;;50.50;29.85;;;8.50;97.30;;;;;;5074501;28;20040;-56
2023/12/19 00:13:23;;;;;;;49.53;28.95;;;8.50;97.30;;;;;;5074784;28;20052;-57
2023/12/19 00:15:51;;;;;;;42.80;27.80;;;8.50;97.30;;;;;;5073961;28;20115;-58
2023/12/19 00:18:18;;;;;;;46.47;27.98;;;8.40;97.30;;;;;;5073822;28;20439;-58
2023/12/19 00:20:45;;;;;;;45.53;28.50;;;8.40;97.30;;;;;;5093966;28;20024;-58
2023/12/19 00:23:11;;;;;;;38.60;25.58;;;8.40;97.30;;;;;;5095947;28;20020;-55
2023/12/19 00:25:37;;;;;;;49.65;28.83;;;8.40;97.30;;;;;;5084037;28;20097;-54
2023/12/19 00:28:05;;;;;;;45.10;27.38;;;8.40;97.30;;;;;;5074013;28;20465;-55
2023/12/19 00:30:32;;;;;;;42.85;25.65;;;8.50;97.30;;;;;;5073484;28;20537;-52
2023/12/19 00:32:59;;;;;;;43.80;26.42;;;8.50;97.40;;;;;;5073692;28;20046;-50
2023/12/19 00:35:26;;;;;;;42.08;25.80;;;8.40;97.40;;;;;;5073518;28;20033;-51
2023/12/19 00:37:52;;;;;;;40.53;23.63;;;8.40;97.40;;;;;;5073702;28;20036;-52
2023/12/19 00:40:20;;;;;;;37.88;24.75;;;8.40;97.40;;;;;;5074090;28;20055;-49
2023/12/19 00:42:47;;;;;;;35.05;23.73;;;8.50;97.40;;;;;;5073616;28;20397;-49
2023/12/19 00:45:14;;;;;;;36.47;22.70;;;8.40;97.40;;;;;;5073435;28;20028;-51
2023/12/19 00:47:40;;;;;;;34.90;21.38;;;8.40;97.40;;;;;;5074085;28;20036;-52
2023/12/19 00:50:08;;;;;;;35.35;22.52;;;8.40;97.40;;;;;;5071488;28;20054;-51
2023/12/19 00:52:39;;;;;;;37.50;21.80;;;8.40;97.40;;;;;;5055944;28;20470;-52
2023/12/19 00:55:05;;;;;;;35.70;22.63;;;8.40;97.40;;;;;;5073377;28;20093;-50
2023/12/19 00:57:33;;;;;;;38.85;22.27;;;8.40;97.40;;;;;;5073628;28;20020;-50
2023/12/19 00:59:58;;;;;;;33.38;21.30;;;8.40;97.40;;;;;;5073775;28;20449;-53
2023/12/19 01:02:34;;;;;;;34.25;20.63;;;8.40;97.40;;;;;;5073079;28;20062;-53
2023/12/19 01:05:01;;;;;;;36.30;21.88;;;8.40;97.40;;;;;;5073129;28;20380;-49
2023/12/19 01:07:28;;;;;;;35.45;20.48;;;8.40;97.40;;;;;;5072782;28;20029;-51
2023/12/19 01:09:55;;;;;;;34.22;21.08;;;8.40;97.40;;;;;;5057067;28;20079;-53
2023/12/19 01:12:21;;;;;;;33.10;21.83;;;8.40;97.40;;;;;;5052897;28;20493;-50
2023/12/19 01:14:46;;;;;;;32.83;22.33;;;8.40;97.40;;;;;;5053161;28;20032;-50
2023/12/19 01:17:14;;;;;;;35.42;23.17;;;8.40;97.40;;;;;;5052870;28;20033;-52
2023/12/19 01:19:41;;;;;;;33.60;20.58;;;8.40;97.40;;;;;;5053037;28;20446;-50
2023/12/19 01:22:08;;;;;;;29.95;20.20;;;8.40;97.40;;;;;;5053584;28;20021;-49
2023/12/19 01:24:35;;;;;;;31.13;20.23;;;8.40;97.40;;;;;;5067332;28;20107;-51
2023/12/19 01:27:02;;;;;;;29.60;20.30;;;8.30;97.40;;;;;;5073204;28;20020;-54
2023/12/19 01:29:28;;;;;;;34.08;20.95;;;8.30;97.40;;;;;;5072913;28;20032;-50
2023/12/19 01:31:56;;;;;;;31.75;19.48;;;8.40;97.40;;;;;;5050965;28;20044;-53
2023/12/19 01:34:24;;;;;;;32.58;20.80;;;8.30;97.40;;;;;;5052581;28;20016;-53
2023/12/19 01:36:54;;;;;;;33.30;20.40;;;8.30;97.40;;;;;;5053115;28;20044;-52
2023/12/19 01:39:23;;;;;;;29.35;20.70;;;8.40;97.40;;;;;;5053276;28;20431;-48
2023/12/19 01:41:50;;;;;;;26.83;18.25;;;8.40;97.40;;;;;;5034937;28;20033;-53
2023/12/19 01:44:21;;;;;;;30.08;20.35;;;8.30;97.30;;;;;;5052605;28;20032;-53
2023/12/19 01:46:47;;;;;;;26.23;18.77;;;8.20;97.30;;;;;;5051882;28;20489;-53
2023/12/19 01:49:15;;;;;;;25.33;17.60;;;8.30;97.40;;;;;;5052615;28;20028;-52
2023/12/19 01:51:43;;;;;;;26.40;16.35;;;8.30;97.30;;;;;;5034889;28;20140;-55
2023/12/19 01:54:11;;;;;;;29.98;19.80;;;8.20;97.30;;;;;;5066502;28;20032;-57
2023/12/19 01:56:39;;;;;;;31.55;19.90;;;8.30;97.30;;;;;;5072790;28;20032;-58
2023/12/19 01:59:06;;;;;;;29.27;19.45;;;8.20;97.30;;;;;;5072548;28;20082;-59
2023/12/19 02:01:37;;;;;;;29.85;19.95;;;8.20;97.30;;;;;;5074621;28;20044;-58
2023/12/19 02:04:04;;;;;;;29.63;18.52;;;8.20;97.30;;;;;;5056564;28;20048;-58
2023/12/19 02:06:35;;;;;;;28.60;18.08;;;8.20;97.30;;;;;;5038981;28;20037;-58
2023/12/19 02:09:07;;;;;;;29.17;18.75;;;8.20;97.30;;;;;;5039815;28;20049;-52
2023/12/19 02:11:40;;;;;;;29.75;19.38;;;8.20;97.30;;;;;;5077385;28;20588;-54
2023/12/19 02:14:07;;;;;;;26.80;17.50;;;8.20;97.30;;;;;;5076057;28;20028;-50
2023/12/19 02:16:33;;;;;;;29.50;18.50;;;8.30;97.30;;;;;;5075442;28;20039;-55
2023/12/19 02:19:05;;;;;;;26.45;17.63;;;8.20;97.30;;;;;;5076313;28;20389;-52
2023/12/19 02:21:31;;;;;;;25.23;17.88;;;8.30;97.40;;;;;;5077954;28;20047;-49
2023/12/19 02:23:58;;;;;;;23.48;16.60;;;8.30;97.40;;;;;;5096304;28;20039;-49
2023/12/19 02:26:25;;;;;;;23.90;16.83;;;8.30;97.40;;;;;;5089730;28;20120;-50
2023/12/19 02:28:52;;;;;;;27.33;16.38;;;8.30;97.40;;;;;;5058788;28;20477;-51
2023/12/19 02:31:20;;;;;;;24.13;14.93;;;8.30;97.40;;;;;;5076245;28;20358;-54
2023/12/19 02:33:47;;;;;;;21.35;14.63;;;8.30;97.40;;;;;;5076325;28;20074;-53
2023/12/19 02:36:16;;;;;;;20.85;15.52;;;8.30;97.40;;;;;;5076073;28;20140;-52
2023/12/19 02:38:42;;;;;;;19.93;14.30;;;8.30;97.40;;;;;;5058700;28;20094;-56
2023/12/19 02:41:10;;;;;;;18.02;12.15;;;8.30;97.40;;;;;;5075676;28;20036;-53
2023/12/19 02:43:38;;;;;;;22.92;13.77;;;8.30;97.40;;;;;;5076100;28;20056;-50
2023/12/19 02:46:06;;;;;;;16.95;12.07;;;8.20;97.40;;;;;;5075582;28;20139;-51
2023/12/19 02:48:34;;;;;;;;;;;8.30;97.40;;;;;;5080697;28;20039;-50
2023/12/19 02:51:01;;;;;;;18.25;11.90;;;8.30;97.40;;;;;;5095166;28;19999;-53
2023/12/19 02:53:29;;;;;;;17.52;11.68;;;8.30;97.40;;;;;;5096270;28;20031;-51
2023/12/19 02:55:56;;;;;;;16.17;11.77;;;8.30;97.40;;;;;;5090556;28;20501;-51
2023/12/19 02:58:24;;;;;;;18.08;11.98;;;8.30;97.40;;;;;;5057834;28;20033;-50
2023/12/19 03:00:51;;;;;;;18.98;12.57;;;8.30;97.40;;;;;;5075677;28;20437;-53
2023/12/19 03:03:18;;;;;;;16.35;10.63;;;8.30;97.40;;;;;;5074540;28;20047;-49
2023/12/19 03:05:43;;;;;;;15.85;12.02;;;8.30;97.40;;;;;;5075469;28;20044;-50
2023/12/19 03:08:09;;;;;;;15.20;11.10;;;8.30;97.40;;;;;;5075646;28;20020;-50
2023/12/19 03:10:36;;;;;;;15.20;9.75;;;8.30;97.40;;;;;;5075672;28;20129;-57
2023/12/19 03:13:03;;;;;;;13.80;8.73;;;8.30;97.40;;;;;;5057377;28;20048;-52
2023/12/19 03:15:29;;;;;;;14.35;9.65;;;8.30;97.40;;;;;;5074998;28;20012;-50
2023/12/19 03:17:58;;;;;;;16.23;10.45;;;8.30;97.40;;;;;;5075084;28;20021;-52
2023/12/19 03:20:24;;;;;;;15.13;10.77;;;8.20;97.40;;;;;;5075407;28;20031;-50
2023/12/19 03:22:51;;;;;;;15.23;9.35;;;8.20;97.40;;;;;;5074975;28;20165;-51
2023/12/19 03:25:17;;;;;;;14.38;10.10;;;8.20;97.40;;;;;;5077153;28;20505;-49
2023/12/19 03:27:43;;;;;;;12.30;9.55;;;8.20;97.40;;;;;;5095181;28;20043;-49
2023/12/19 03:30:11;;;;;;;13.90;9.15;;;8.20;97.40;;;;;;5080458;28;20360;-50
2023/12/19 03:32:37;;;;;;;14.27;10.07;;;8.20;97.40;;;;;;5074779;28;20028;-50
2023/12/19 03:35:05;;;;;;;14.32;10.35;;;8.20;97.40;;;;;;5075346;28;20713;-52
2023/12/19 03:37:32;;;;;;;14.07;10.27;;;8.20;97.30;;;;;;5057133;28;20037;-48
2023/12/19 03:40:00;;;;;;;13.50;9.68;;;8.20;97.40;;;;;;5074957;28;20035;-48
2023/12/19 03:42:27;;;;;;;14.02;9.68;;;8.20;97.40;;;;;;5075408;28;20361;-48
2023/12/19 03:44:53;;;;;;;14.70;10.45;;;8.20;97.30;;;;;;5074508;28;20036;-48
2023/12/19 03:47:20;;;;;;;12.57;9.45;;;8.20;97.30;;;;;;5074658;28;20154;-49
2023/12/19 03:49:48;;;;;;;14.20;10.07;;;8.20;97.30;;;;;;5075191;28;20031;-49
2023/12/19 03:52:17;;;;;;;12.98;9.48;;;8.20;97.30;;;;;;5074748;28;20028;-50
2023/12/19 03:54:45;;;;;;;12.90;8.55;;;8.20;97.30;;;;;;5074529;28;20021;-48
2023/12/19 03:57:14;;;;;;;12.50;9.20;;;8.20;97.30;;;;;;5075211;28;20016;-48
2023/12/19 03:59:45;;;;;;;14.43;9.23;;;8.20;97.30;;;;;;5074580;28;20058;-47
2023/12/19 04:02:12;;;;;;;11.88;8.77;;;8.20;97.30;;;;;;5074821;28;20101;-47
2023/12/19 04:04:38;;;;;;;12.15;8.50;;;8.20;97.30;;;;;;5074750;28;20024;-49
2023/12/19 04:07:06;;;;;;;12.23;8.75;;;8.20;97.30;;;;;;5057124;28;20472;-48
2023/12/19 04:09:35;;;;;;;15.93;10.95;;;8.20;97.30;;;;;;5074151;28;20058;-49
2023/12/19 04:12:03;;;;;;;12.85;9.27;;;8.20;97.30;;;;;;5075028;28;20962;-48
2023/12/19 04:14:36;;;;;;;12.95;9.52;;;8.20;97.30;;;;;;5094453;28;20357;-48
2023/12/19 04:17:03;;;;;;;11.93;8.70;;;8.20;97.30;;;;;;5094288;28;20035;-51
2023/12/19 04:19:29;;;;;;;12.73;9.25;;;8.20;97.30;;;;;;5094144;28;20082;-48
2023/12/19 04:21:58;;;;;;;13.00;9.45;;;8.20;97.20;;;;;;5091053;28;20368;-50
2023/12/19 04:24:26;;;;;;;12.32;9.00;;;8.20;97.30;;;;;;5087021;28;20034;-49
2023/12/19 04:26:54;;;;;;;14.30;9.30;;;8.20;97.30;;;;;;5081858;28;20045;-50
2023/12/19 04:29:22;;;;;;;12.18;9.15;;;8.20;97.30;;;;;;5074797;28;20035;-51
2023/12/19 04:31:52;;;;;;;11.10;8.15;;;8.10;97.30;;;;;;5073866;28;20044;-49
2023/12/19 04:34:20;;;;;;;11.50;9.15;;;8.20;97.30;;;;;;5073777;28;20035;-49
2023/12/19 04:36:47;;;;;;;11.85;8.48;;;8.20;97.20;;;;;;5073898;28;20035;-50
2023/12/19 04:39:14;;;;;;;11.57;8.25;;;8.20;97.30;;;;;;5093745;28;20081;-51
2023/12/19 04:41:41;;;;;;;11.02;8.07;;;8.10;97.20;;;;;;5093693;28;20093;-50
2023/12/19 04:44:07;;;;;;;10.48;8.00;;;8.10;97.20;;;;;;5083719;28;20036;-51
2023/12/19 04:46:34;;;;;;;10.88;7.00;;;8.10;97.20;;;;;;5073351;28;20078;-50
2023/12/19 04:49:00;;;;;;;12.52;7.55;;;8.10;97.10;;;;;;5074036;28;20115;-52
2023/12/19 04:51:29;;;;;;;10.63;7.97;;;8.10;97.20;;;;;;5073614;28;20040;-50
2023/12/19 04:53:57;;;;;;;10.68;8.00;;;8.10;97.20;;;;;;5073086;28;20059;-50
2023/12/19 04:56:25;;;;;;;10.52;8.00;;;8.00;97.20;;;;;;5073665;28;20063;-51
2023/12/19 04:58:52;;;;;;;10.52;8.15;;;8.00;97.10;;;;;;5073182;28;20481;-51
2023/12/19 05:01:19;;;;;;;12.85;8.25;;;8.00;97.10;;;;;;5073197;28;20058;-52
2023/12/19 05:03:46;;;;;;;10.38;7.78;;;8.00;97.10;;;;;;5073815;28;20039;-52
2023/12/19 05:06:18;;;;;;;11.52;7.75;;;7.90;97.10;;;;;;5073277;28;20100;-51
2023/12/19 05:08:46;;;;;;;10.05;7.38;;;8.00;97.20;;;;;;5073753;28;20069;-52
2023/12/19 05:11:12;;;;;;;10.15;7.30;;;7.90;97.10;;;;;;5055706;28;20086;-54
2023/12/19 05:13:40;;;;;;;9.88;7.13;;;7.90;97.10;;;;;;5055970;28;20029;-52
2023/12/19 05:16:20;;;;;;;10.07;7.13;;;7.90;97.10;;;;;;5072800;28;20020;-50
2023/12/19 05:18:46;;;;;;;;;;;7.90;97.10;;;;;;5057410;28;20033;-51
2023/12/19 05:21:13;;;;;;;9.57;6.38;;;7.90;97.10;;;;;;5073312;28;19994;-51
2023/12/19 05:23:40;;;;;;;8.45;6.45;;;7.90;97.10;;;;;;5055471;28;20346;-53
2023/12/19 05:26:08;;;;;;;8.70;6.10;;;7.90;97.10;;;;;;5072550;28;20039;-53
2023/12/19 05:28:36;;;;;;;6.90;5.47;;;7.90;97.10;;;;;;5055727;28;20029;-54
2023/12/19 05:31:04;;;;;;;9.48;6.18;;;7.80;97.00;;;;;;5072629;28;20047;-54
2023/12/19 05:33:33;;;;;;;9.07;6.25;;;7.80;97.10;;;;;;5072104;28;20066;-52
2023/12/19 05:36:00;;;;;;;8.93;6.63;;;7.80;97.00;;;;;;5054956;28;20032;-50
2023/12/19 05:38:28;;;;;;;8.55;6.32;;;7.80;97.00;;;;;;5055188;28;20031;-50
2023/12/19 05:40:57;;;;;;;7.88;5.97;;;7.70;97.00;;;;;;5055250;28;20411;-50
2023/12/19 05:43:23;;;;;;;7.72;5.43;;;7.70;97.00;;;;;;5073118;28;20043;-50
2023/12/19 05:45:51;;;;;;;8.77;5.53;;;7.70;97.00;;;;;;5038723;28;20037;-49
2023/12/19 05:48:20;;;;;;;8.40;5.22;;;7.70;97.00;;;;;;5073450;28;20036;-49
2023/12/19 05:50:49;;;;;;;7.13;5.78;;;7.70;97.00;;;;;;5072754;28;20460;-49
2023/12/19 05:53:16;;;;;;;6.45;4.50;;;7.70;97.00;;;;;;5072610;28;20043;-50
2023/12/19 05:55:47;;;;;;;7.18;5.45;;;7.70;97.00;;;;;;5072614;28;20025;-50
2023/12/19 05:58:15;;;;;;;7.10;4.82;;;7.70;97.00;;;;;;5073303;28;20485;-48
2023/12/19 06:00:45;;;;;;;6.72;4.60;;;7.70;97.00;;;;;;5072593;28;20025;-50
2023/12/19 06:03:13;;;;;;;7.88;5.15;;;7.70;96.90;;;;;;5072925;28;20032;-51
2023/12/19 06:05:41;;;;;;;6.18;3.90;;;7.70;96.90;;;;;;5072614;28;20025;-55
2023/12/19 06:08:08;;;;;;;6.10;3.88;;;7.70;96.90;;;;;;5073062;28;20024;-50
2023/12/19 06:10:35;;;;;;;6.78;4.53;;;7.70;96.90;;;;;;5072409;28;20053;-54
2023/12/19 06:13:02;;;;;;;5.22;4.03;;;7.70;96.90;;;;;;5072626;28;20017;-55
2023/12/19 06:15:28;;;;;;;5.93;4.13;;;7.70;96.90;;;;;;5072466;28;20381;-56
2023/12/19 06:17:54;;;;;;;5.85;4.28;;;7.70;96.90;;;;;;5072460;28;20029;-56
2023/12/19 06:20:20;;;;;;;5.55;3.88;;;7.70;96.90;;;;;;5092363;28;20024;-57
2023/12/19 06:22:48;;;;;;;5.50;4.03;;;7.70;96.90;;;;;;5092898;28;20020;-56
2023/12/19 06:25:17;;;;;;;5.05;3.63;;;7.70;96.80;;;;;;5072223;28;20043;-54
2023/12/19 06:27:44;;;;;;;6.10;3.75;;;7.60;96.80;;;;;;5072613;28;20032;-57
2023/12/19 06:30:11;;;;;;;5.80;3.88;;;7.60;96.80;;;;;;5091989;28;20073;-53
2023/12/19 06:32:40;;;;;;;5.00;3.38;;;7.70;96.90;;;;;;5092453;28;20032;-51
2023/12/19 06:35:09;;;;;;;5.78;3.53;;;7.70;96.90;;;;;;5092490;28;20460;-53
2023/12/19 06:37:35;;;;;;;5.47;3.73;;;7.60;96.80;;;;;;5091617;28;20032;-54
2023/12/19 06:40:06;;;;;;;5.15;3.38;;;7.60;96.80;;;;;;5072353;28;20035;-53
2023/12/19 06:42:33;;;;;;;5.05;3.38;;;7.70;96.90;;;;;;5072389;28;20349;-52
2023/12/19 06:45:00;;;;;;;4.78;3.08;;;7.70;96.80;;;;;;5072888;28;20029;-51
2023/12/19 06:47:29;;;;;;;4.72;3.15;;;7.70;96.90;;;;;;5074113;28;20442;-54
2023/12/19 06:49:56;;;;;;;7.30;3.72;;;7.70;96.80;;;;;;5075820;28;20480;-57
2023/12/19 06:52:23;;;;;;;4.45;3.05;;;7.70;96.80;;;;;;5075968;28;20029;-58
2023/12/19 06:54:51;;;;;;;5.90;3.80;;;7.70;96.80;;;;;;5058402;28;20044;-50
2023/12/19 06:57:19;;;;;;;4.95;3.47;;;7.70;96.80;;;;;;5075646;28;20028;-50
2023/12/19 06:59:46;;;;;;;5.10;3.22;;;7.60;96.70;;;;;;5058039;28;20327;-51
2023/12/19 07:02:13;;;;;;;5.15;3.63;;;7.70;96.80;;;;;;5075800;28;20032;-53
2023/12/19 07:04:40;;;;;;;5.13;3.63;;;7.60;96.80;;;;;;5075992;28;20357;-52
2023/12/19 07:07:08;;;;;;;5.20;3.33;;;7.60;96.80;;;;;;5075947;28;20031;-50
2023/12/19 07:09:37;;;;;;;6.13;4.30;;;7.70;96.80;;;;;;5075270;28;20076;-56
2023/12/19 07:12:10;;;;;;;5.22;3.60;;;7.60;96.80;;;;;;5075343;28;20095;-53
2023/12/19 07:14:38;;;;;;;5.70;3.88;;;7.60;96.80;;;;;;5075793;28;20025;-57
2023/12/19 07:17:05;;;;;;;4.97;3.40;;;7.60;96.80;;;;;;5075316;28;20028;-51
2023/12/19 07:19:31;;;;;;;5.25;3.58;;;7.60;96.70;;;;;;5075211;28;20028;-55
2023/12/19 07:22:00;;;;;;;6.22;4.03;;;7.60;96.80;;;;;;5075013;28;20102;-53
2023/12/19 07:24:28;;;;;;;5.93;3.95;;;7.70;96.80;;;;;;5089036;28;20084;-58
2023/12/19 07:26:59;;;;;;;5.53;3.78;;;7.70;96.80;;;;;;5095336;28;20448;-58
2023/12/19 07:29:26;;;;;;;7.25;4.75;;;7.60;96.80;;;;;;5076859;28;20033;-58
2023/12/19 07:31:53;;;;;;;6.68;3.42;;;7.60;96.80;;;;;;5075019;28;20033;-59
2023/12/19 07:34:20;;;;;;;6.15;4.05;;;7.70;96.90;;;;;;5092849;28;20456;-60
2023/12/19 07:36:47;;;;;;;6.15;3.92;;;7.70;96.80;;;;;;5094750;28;20023;-60
2023/12/19 07:39:15;;;;;;;6.05;4.35;;;7.70;96.80;;;;;;5079790;28;20369;-59
2023/12/19 07:41:42;;;;;;;6.75;4.25;;;7.70;96.80;;;;;;5074295;28;20028;-59
2023/12/19 07:44:14;;;;;;;5.65;3.80;;;7.70;96.80;;;;;;5074510;28;20029;-60
2023/12/19 07:46:43;;;;;;;5.47;4.07;;;7.60;96.90;;;;;;5074531;28;20129;-60
2023/12/19 07:49:12;;;;;;;6.05;4.03;;;7.70;96.90;;;;;;5056651;28;20024;-60
2023/12/19 07:51:39;;;;;;;8.13;4.07;;;7.70;96.80;;;;;;5074808;28;20029;-60
2023/12/19 07:54:06;;;;;;;5.45;4.03;;;7.60;96.90;;;;;;5074628;28;20060;-60
2023/12/19 07:56:33;;;;;;;7.55;4.57;;;7.70;96.90;;;;;;5074737;28;20043;-59
2023/12/19 07:58:59;;;;;;;5.57;3.50;;;7.70;96.80;;;;;;5073453;28;20354;-55
2023/12/19 08:01:25;;;;;;;4.95;3.00;;;7.70;96.90;;;;;;5074338;28;20024;-59
2023/12/19 08:03:52;;;;;;;5.63;3.75;;;7.70;96.90;;;;;;5074606;28;20024;-59
2023/12/19 08:06:19;;;;;;;5.03;3.85;;;7.70;96.90;;;;;;5056770;28;20063;-58
2023/12/19 08:08:50;;;;;;;6.57;3.85;;;7.70;96.90;;;;;;5073373;28;20040;-57
2023/12/19 08:11:17;;;;;;;6.30;4.05;;;7.70;96.90;;;;;;5074931;28;20074;-56
2023/12/19 08:13:44;;;;;;;7.72;4.53;;;7.70;96.90;;;;;;5074059;28;20466;-58
2023/12/19 08:16:15;;;;;;;6.00;3.97;;;7.70;96.90;;;;;;5074134;28;20055;-58
2023/12/19 08:18:41;;;;;;;6.75;4.68;;;7.70;96.90;;;;;;5074128;28;20017;-58
2023/12/19 08:21:08;;;;;;;6.20;4.45;;;7.70;96.90;;;;;;5074408;28;20115;-59
2023/12/19 08:23:35;;;;;;;5.55;3.92;;;7.70;96.90;;;;;;5080257;28;20028;-60
2023/12/19 08:26:08;;;;;;;5.80;3.65;;;7.70;97.00;;;;;;5088742;28;20025;-60
2023/12/19 08:28:36;;;;;;;5.80;4.10;;;7.70;96.90;;;;;;5074071;28;20035;-59
2023/12/19 08:31:03;;;;;;;5.43;3.47;;;7.70;97.00;;;;;;5074156;28;20050;-56
2023/12/19 08:33:31;;;;;;;10.55;4.10;;;7.80;97.00;;;;;;5073768;28;20493;-56
2023/12/19 08:35:56;;;;;;;5.18;3.20;;;7.70;96.90;;;;;;5073893;28;20399;-54
2023/12/19 08:38:22;;;;;;;5.60;3.63;;;7.70;97.00;;;;;;5073806;28;20060;-56
2023/12/19 08:40:49;;;;;;;5.05;3.53;;;7.70;97.00;;;;;;5074002;28;20119;-55
2023/12/19 08:43:20;;;;;;;4.45;2.88;;;7.70;97.00;;;;;;5073540;28;20043;-53
2023/12/19 08:45:48;;;;;;;4.68;3.00;;;7.70;97.00;;;;;;5074177;28;20119;-56
2023/12/19 08:48:16;;;;;;;3.63;2.28;;;7.70;96.90;;;;;;5073512;28;20044;-59
2023/12/19 08:50:44;;;;;;;4.88;2.95;;;7.70;97.00;;;;;;5056145;28;20431;-57
2023/12/19 08:53:12;;;;;;;5.82;2.80;;;7.70;97.00;;;;;;5073572;28;20037;-58
2023/12/19 08:55:42;;;;;;;4.07;2.70;;;7.80;97.00;;;;;;5073793;28;20086;-59
2023/12/19 08:58:09;;;;;;;4.80;3.13;;;7.70;97.00;;;;;;5073337;28;20017;-58
2023/12/19 09:00:35;;;;;;;4.50;3.53;;;7.80;97.00;;;;;;5073660;28;20035;-57
2023/12/19 09:03:05;;;;;;;4.28;2.70;;;7.80;97.00;;;;;;5073278;28;20107;-58
2023/12/19 09:05:33;;;;;;;4.20;2.67;;;7.80;97.00;;;;;;5073537;28;20078;-52
2023/12/19 09:08:00;;;;;;;5.00;2.95;;;7.80;97.00;;;;;;5073391;28;20025;-53
2023/12/19 09:10:26;;;;;;;6.05;3.30;;;7.80;97.00;;;;;;5054498;28;20486;-56
2023/12/19 09:12:53;;;;;;;5.47;3.53;;;7.90;97.10;;;;;;5072769;28;20103;-51
2023/12/19 09:15:21;;;;;;;5.03;2.88;;;7.90;97.00;;;;;;5072644;28;20100;-55
2023/12/19 09:17:47;;;;;;;4.30;2.80;;;7.90;97.00;;;;;;5055570;28;20438;-53
2023/12/19 09:20:15;;;;;;;5.30;3.15;;;7.80;97.00;;;;;;5072976;28;20025;-53
2023/12/19 09:22:41;;;;;;;3.88;2.53;;;7.90;97.00;;;;;;5071601;28;20071;-52
2023/12/19 09:25:14;;;;;;;4.47;3.17;;;7.90;97.00;;;;;;5072990;28;20056;-53
2023/12/19 09:27:42;;;;;;;4.53;3.15;;;7.90;97.00;;;;;;5073302;28;20032;-54
2023/12/19 09:30:15;;;;;;;4.75;2.85;;;7.90;97.00;;;;;;5072850;28;20024;-57
2023/12/19 09:32:47;;;;;;;6.28;3.63;;;7.90;96.90;;;;;;5072639;28;20025;-55
2023/12/19 09:35:13;;;;;;;4.10;2.83;;;7.90;96.90;;;;;;5055111;28;20396;-56
2023/12/19 09:37:40;;;;;;;4.93;3.30;;;7.90;96.90;;;;;;5072736;28;20024;-51
2023/12/19 09:40:15;;;;;;;5.28;3.72;;;7.90;97.00;;;;;;5071867;28;20067;-49
2023/12/19 09:42:43;;;;;;;4.80;3.03;;;7.90;96.90;;;;;;5054965;28;20032;-50
2023/12/19 09:45:09;;;;;;;5.65;3.83;;;7.90;96.90;;;;;;5071997;28;20036;-48
2023/12/19 09:47:48;;;;;;;5.72;3.90;;;7.90;96.90;;;;;;5071843;28;20111;-50
2023/12/19 09:50:17;;;;;;;6.10;4.40;;;8.00;96.90;;;;;;5072075;28;20037;-48
2023/12/19 09:52:48;;;;;;;6.35;5.07;;;8.00;96.90;;;;;;5071893;28;20036;-47
2023/12/19 09:55:16;;;;;;;5.57;4.10;;;8.00;96.90;;;;;;5072946;28;20365;-51
2023/12/19 09:57:46;;;;;;;6.18;4.60;;;8.00;96.90;;;;;;5072763;28;20462;-51
2023/12/19 10:00:13;;;;;;;6.53;4.60;;;8.00;96.80;;;;;;5071277;28;20074;-49
2023/12/19 10:02:41;;;;;;;7.55;5.63;;;8.10;96.90;;;;;;5072817;28;20036;-51
2023/12/19 10:05:10;;;;;;;6.65;5.30;;;8.10;96.90;;;;;;5069997;28;20029;-52
2023/12/19 10:07:36;;;;;;;7.50;6.18;;;8.10;96.90;;;;;;5072636;28;20024;-50
2023/12/19 10:10:07;;;;;;;8.82;7.03;;;8.10;96.90;;;;;;5071358;28;20493;-50
2023/12/19 10:12:46;;;;;;;8.75;7.38;;;8.10;96.90;;;;;;5072901;28;20040;-49
2023/12/19 10:15:16;;;;;;;8.88;7.32;;;8.10;96.90;;;;;;5054848;28;20509;-48
2023/12/19 10:18:10;;;;;;;11.27;7.90;;;8.10;96.90;;;;;;5072680;28;20024;-50
2023/12/19 10:20:38;;;;;;;8.88;7.72;;;8.10;96.90;;;;;;5072616;28;20525;-53
2023/12/19 10:23:06;;;;;;;9.35;7.32;;;8.20;96.90;;;;;;5060281;28;20062;-57
2023/12/19 10:25:35;;;;;;;9.07;7.18;;;8.10;96.90;;;;;;5077986;28;20508;-58
2023/12/19 10:28:09;;;;;;;7.20;6.35;;;8.20;97.00;;;;;;5076030;28;20060;-54
2023/12/19 10:30:37;;;;;;;9.27;7.40;;;8.20;97.00;;;;;;5075910;28;20025;-55
2023/12/19 10:33:04;;;;;;;8.85;7.35;;;8.20;97.00;;;;;;5075984;28;20032;-55
2023/12/19 10:35:42;;;;;;;8.18;6.90;;;8.20;97.00;;;;;;5076121;28;20334;-53
2023/12/19 10:38:10;;;;;;;9.00;7.82;;;8.30;97.00;;;;;;5058506;28;20029;-53
2023/12/19 10:40:37;;;;;;;7.65;6.15;;;8.20;97.00;;;;;;5075935;28;20070;-55
2023/12/19 10:43:06;;;;;;;9.10;7.40;;;8.30;97.00;;;;;;5076622;28;20028;-55
2023/12/19 10:45:33;;;;;;;9.65;7.75;;;8.20;97.00;;;;;;5075980;28;20017;-56
2023/12/19 10:48:01;;;;;;;9.30;7.63;;;8.30;97.10;;;;;;5058774;28;20036;-57
2023/12/19 10:50:28;;;;;;;9.48;7.85;;;8.30;97.00;;;;;;5075812;28;20024;-56
2023/12/19 10:53:02;;;;;;;9.60;7.75;;;8.30;97.00;;;;;;5075556;28;20049;-58
2023/12/19 10:55:44;;;;;;;8.18;6.78;;;8.40;97.00;;;;;;5058764;28;20078;-55
2023/12/19 10:58:17;;;;;;;9.35;7.65;;;8.40;97.00;;;;;;5075613;28;20021;-53
2023/12/19 11:00:47;;;;;;;10.25;8.70;;;8.40;97.00;;;;;;5058911;28;20038;-53
2023/12/19 11:03:31;;;;;;;;;;;8.40;97.00;;;;;;5075844;28;20040;-54
2023/12/19 11:06:02;;;;;;;9.98;8.13;;;8.40;97.00;;;;;;5075616;28;19908;-58
2023/12/19 11:08:29;;;;;;;9.32;7.82;;;8.40;97.00;;;;;;5075295;28;20411;-58
2023/12/19 11:11:34;;;;;;;10.15;8.00;;;8.40;97.10;;;;;;5075350;28;20424;-58
2023/12/19 11:14:03;;;;;;;9.38;7.82;;;8.40;97.00;;;;;;5042973;28;20076;-57
2023/12/19 11:16:40;;;;;;;9.95;7.97;;;8.40;97.00;;;;;;5075171;28;20086;-58
2023/12/19 11:19:17;;;;;;;10.05;8.05;;;8.40;97.00;;;;;;5075721;28;20028;-56
2023/12/19 11:22:02;;;;;;;8.93;7.10;;;8.50;97.00;;;;;;5069406;28;20458;-54
2023/12/19 11:24:48;;;;;;;9.15;7.60;;;8.50;97.10;;;;;;5089118;28;20047;-52
2023/12/19 11:27:27;;;;;;;7.75;6.55;;;8.50;97.00;;;;;;5097591;28;20148;-58
2023/12/19 11:29:55;;;;;;;7.73;5.67;;;8.60;97.00;;;;;;5042077;28;20573;-55
2023/12/19 11:32:29;;;;;;;8.90;6.53;;;8.60;97.00;;;;;;5075519;28;20086;-58
2023/12/19 11:35:12;;;;;;;8.85;7.30;;;8.60;97.10;;;;;;5075024;28;20021;-57
2023/12/19 11:37:47;;;;;;;8.45;6.35;;;8.60;97.10;;;;;;5069610;28;20033;-58
2023/12/19 11:40:45;;;;;;;7.68;6.45;;;8.70;97.10;;;;;;5074080;28;20031;-57
2023/12/19 11:43:36;;;;;;;7.65;5.97;;;8.70;97.10;;;;;;5074673;28;20124;-58
2023/12/19 11:46:10;;;;;;;8.20;6.43;;;8.70;97.10;;;;;;5074739;28;20033;-58
2023/12/19 11:48:55;;;;;;;8.23;5.85;;;8.70;97.10;;;;;;5069796;28;20062;-58
2023/12/19 11:51:50;;;;;;;9.38;5.78;;;8.70;97.10;;;;;;5074505;28;20033;-53
2023/12/19 11:54:18;;;;;;;6.57;5.18;;;8.70;97.00;;;;;;5065384;28;20033;-52
2023/12/19 11:56:44;;;;;;;7.70;5.55;;;8.70;97.10;;;;;;5074228;28;20052;-55
2023/12/19 11:59:13;;;;;;;8.43;5.88;;;8.70;97.10;;;;;;5074923;28;20056;-56
2023/12/19 12:01:42;;;;;;;7.13;5.53;;;8.80;97.10;;;;;;5074311;28;20024;-50
2023/12/19 12:04:13;;;;;;;7.55;5.55;;;8.80;97.20;;;;;;5056801;28;20036;-52
2023/12/19 12:06:41;;;;;;;7.53;5.50;;;8.80;97.10;;;;;;5074611;28;20032;-50
2023/12/19 12:09:09;;;;;;;7.43;6.10;;;8.80;97.20;;;;;;5037425;28;20472;-48
2023/12/19 12:11:48;;;;;;;7.82;6.32;;;8.80;97.20;;;;;;5054350;28;20051;-49
2023/12/19 12:14:15;;;;;;;7.23;5.83;;;8.80;97.10;;;;;;5053443;28;20036;-50
2023/12/19 12:16:42;;;;;;;7.75;5.32;;;8.80;97.10;;;;;;5054102;28;20112;-51
2023/12/19 12:19:29;;;;;;;7.75;6.00;;;8.80;97.20;;;;;;5053096;28;20151;-50
2023/12/19 12:21:54;;;;;;;7.47;5.63;;;8.80;97.20;;;;;;5053736;28;20083;-53
2023/12/19 12:24:35;;;;;;;6.57;4.43;;;8.80;97.20;;;;;;5079450;28;20028;-54
2023/12/19 12:27:10;;;;;;;6.70;5.32;;;8.90;97.20;;;;;;5094262;28;20553;-53
2023/12/19 12:29:38;;;;;;;7.40;5.45;;;8.90;97.20;;;;;;5093870;28;20063;-54
2023/12/19 12:32:05;;;;;;;7.70;5.45;;;8.90;97.20;;;;;;5083112;28;20025;-54
2023/12/19 12:34:33;;;;;;;7.22;5.63;;;8.90;97.30;;;;;;5053291;28;20029;-52
2023/12/19 12:37:00;;;;;;;6.68;5.63;;;8.90;97.20;;;;;;5053571;28;20029;-54
2023/12/19 12:39:28;;;;;;;6.45;4.95;;;8.90;97.20;;;;;;5053496;28;20025;-56
2023/12/19 12:42:05;;;;;;;7.70;5.47;;;8.90;97.30;;;;;;5053827;28;20036;-53
2023/12/19 12:44:33;;;;;;;7.68;5.75;;;8.90;97.30;;;;;;5051694;28;20506;-51
2023/12/19 12:47:05;;;;;;;7.75;5.22;;;8.90;97.30;;;;;;5053164;28;20051;-55
2023/12/19 12:49:31;;;;;;;7.88;6.15;;;9.00;97.30;;;;;;5053238;28;20032;-53
2023/12/19 12:52:00;;;;;;;7.70;6.25;;;9.00;97.30;;;;;;5052580;28;20025;-51
2023/12/19 12:54:25;;;;;;;8.57;6.22;;;9.00;97.30;;;;;;5053477;28;20033;-50
2023/12/19 12:56:52;;;;;;;8.07;6.45;;;9.00;97.30;;;;;;5052928;28;20129;-52
2023/12/19 12:59:24;;;;;;;8.38;6.63;;;9.00;97.30;;;;;;5053386;28;20057;-49